sensor_id;sensor_type;location;lat;lon;timestamp;P1;durP1;ratioP1;P2;durP2;ratioP2
28910;SDS011;16028;42.642;23.310;2022-10-17T00:01:20;11.15;;;7.97;;
28910;SDS011;16028;42.642;23.310;2022-10-17T00:03:47;13.73;;;9.00;;
28910;SDS011;16028;42.642;23.310;2022-10-17T00:06:15;12.52;;;7.68;;
28910;SDS011;16028;42.642;23.310;2022-10-17T00:08:42;14.55;;;8.75;;
28910;SDS011;16028;42.642;23.310;2022-10-17T00:11:12;12.93;;;7.72;;
28910;SDS011;16028;42.642;23.310;2022-10-17T00:13:40;10.25;;;7.20;;
28910;SDS011;16028;42.642;23.310;2022-10-17T00:16:07;12.60;;;7.07;;
28910;SDS011;16028;42.642;23.310;2022-10-17T00:18:34;10.82;;;7.45;;
28910;SDS011;16028;42.642;23.310;2022-10-17T00:21:01;8.65;;;6.15;;
28910;SDS011;16028;42.642;23.310;2022-10-17T00:23:29;11.02;;;6.97;;
28910;SDS011;16028;42.642;23.310;2022-10-17T00:25:56;10.10;;;6.88;;
28910;SDS011;16028;42.642;23.310;2022-10-17T00:28:24;9.45;;;7.30;;
28910;SDS011;16028;42.642;23.310;2022-10-17T00:30:54;10.98;;;7.28;;
28910;SDS011;16028;42.642;23.310;2022-10-17T00:33:21;9.40;;;7.60;;
28910;SDS011;16028;42.642;23.310;2022-10-17T00:35:48;12.30;;;7.95;;
28910;SDS011;16028;42.642;23.310;2022-10-17T00:38:14;11.13;;;8.05;;
28910;SDS011;16028;42.642;23.310;2022-10-17T00:40:42;12.20;;;8.00;;
28910;SDS011;16028;42.642;23.310;2022-10-17T00:43:10;11.52;;;8.20;;
28910;SDS011;16028;42.642;23.310;2022-10-17T00:45:41;13.13;;;9.00;;
28910;SDS011;16028;42.642;23.310;2022-10-17T00:48:09;17.42;;;8.55;;
28910;SDS011;16028;42.642;23.310;2022-10-17T00:50:40;12.98;;;8.35;;
28910;SDS011;16028;42.642;23.310;2022-10-17T00:53:09;11.43;;;7.57;;
28910;SDS011;16028;42.642;23.310;2022-10-17T00:55:37;12.05;;;7.55;;
28910;SDS011;16028;42.642;23.310;2022-10-17T00:58:10;9.68;;;7.03;;
28910;SDS011;16028;42.642;23.310;2022-10-17T01:00:37;10.15;;;7.35;;
28910;SDS011;16028;42.642;23.310;2022-10-17T01:03:05;11.07;;;7.30;;
28910;SDS011;16028;42.642;23.310;2022-10-17T01:05:32;8.95;;;7.40;;
28910;SDS011;16028;42.642;23.310;2022-10-17T01:07:59;8.75;;;6.28;;
28910;SDS011;16028;42.642;23.310;2022-10-17T01:10:29;10.95;;;7.50;;
28910;SDS011;16028;42.642;23.310;2022-10-17T01:13:01;11.32;;;6.72;;
28910;SDS011;16028;42.642;23.310;2022-10-17T01:15:39;10.65;;;7.40;;
28910;SDS011;16028;42.642;23.310;2022-10-17T01:18:18;8.90;;;6.82;;
28910;SDS011;16028;42.642;23.310;2022-10-17T01:24:02;11.23;;;7.40;;
28910;SDS011;16028;42.642;23.310;2022-10-17T01:27:01;11.23;;;8.07;;
28910;SDS011;16028;42.642;23.310;2022-10-17T01:29:52;11.25;;;7.72;;
28910;SDS011;16028;42.642;23.310;2022-10-17T01:32:37;14.07;;;8.25;;
28910;SDS011;16028;42.642;23.310;2022-10-17T01:35:10;12.82;;;8.73;;
28910;SDS011;16028;42.642;23.310;2022-10-17T01:37:43;15.63;;;8.85;;
28910;SDS011;16028;42.642;23.310;2022-10-17T01:40:14;13.95;;;8.80;;
28910;SDS011;16028;42.642;23.310;2022-10-17T01:42:50;14.65;;;8.43;;
28910;SDS011;16028;42.642;23.310;2022-10-17T01:45:24;21.90;;;9.57;;
28910;SDS011;16028;42.642;23.310;2022-10-17T01:47:58;11.25;;;8.23;;
28910;SDS011;16028;42.642;23.310;2022-10-17T01:50:28;16.02;;;8.68;;
28910;SDS011;16028;42.642;23.310;2022-10-17T01:53:00;12.63;;;8.57;;
28910;SDS011;16028;42.642;23.310;2022-10-17T01:55:30;12.40;;;8.35;;
28910;SDS011;16028;42.642;23.310;2022-10-17T01:58:02;11.45;;;8.45;;
28910;SDS011;16028;42.642;23.310;2022-10-17T02:00:33;10.20;;;7.00;;
28910;SDS011;16028;42.642;23.310;2022-10-17T02:03:05;11.82;;;7.68;;
28910;SDS011;16028;42.642;23.310;2022-10-17T02:05:35;10.85;;;7.32;;
28910;SDS011;16028;42.642;23.310;2022-10-17T02:08:04;11.55;;;7.55;;
28910;SDS011;16028;42.642;23.310;2022-10-17T02:10:33;11.82;;;7.47;;
28910;SDS011;16028;42.642;23.310;2022-10-17T02:13:05;11.25;;;8.00;;
28910;SDS011;16028;42.642;23.310;2022-10-17T02:15:44;11.38;;;7.55;;
28910;SDS011;16028;42.642;23.310;2022-10-17T02:18:27;12.88;;;7.95;;
28910;SDS011;16028;42.642;23.310;2022-10-17T02:21:06;13.95;;;7.25;;
28910;SDS011;16028;42.642;23.310;2022-10-17T02:23:37;13.40;;;7.90;;
28910;SDS011;16028;42.642;23.310;2022-10-17T02:26:13;11.45;;;7.88;;
28910;SDS011;16028;42.642;23.310;2022-10-17T02:28:46;11.30;;;8.05;;
28910;SDS011;16028;42.642;23.310;2022-10-17T02:31:24;11.05;;;7.18;;
28910;SDS011;16028;42.642;23.310;2022-10-17T02:33:58;11.15;;;7.85;;
28910;SDS011;16028;42.642;23.310;2022-10-17T02:36:28;11.77;;;8.13;;
28910;SDS011;16028;42.642;23.310;2022-10-17T02:38:58;13.20;;;7.28;;
28910;SDS011;16028;42.642;23.310;2022-10-17T02:41:28;13.27;;;8.23;;
28910;SDS011;16028;42.642;23.310;2022-10-17T02:43:56;17.10;;;8.63;;
28910;SDS011;16028;42.642;23.310;2022-10-17T02:46:24;16.40;;;9.18;;
28910;SDS011;16028;42.642;23.310;2022-10-17T02:48:54;12.40;;;8.30;;
28910;SDS011;16028;42.642;23.310;2022-10-17T02:51:27;14.35;;;8.30;;
28910;SDS011;16028;42.642;23.310;2022-10-17T02:53:58;11.38;;;7.40;;
28910;SDS011;16028;42.642;23.310;2022-10-17T02:56:36;11.55;;;6.47;;
28910;SDS011;16028;42.642;23.310;2022-10-17T02:59:08;10.35;;;6.97;;
28910;SDS011;16028;42.642;23.310;2022-10-17T03:01:39;11.65;;;6.00;;
28910;SDS011;16028;42.642;23.310;2022-10-17T03:04:07;9.20;;;6.53;;
28910;SDS011;16028;42.642;23.310;2022-10-17T03:06:36;9.60;;;5.88;;
28910;SDS011;16028;42.642;23.310;2022-10-17T03:09:03;9.07;;;5.90;;
28910;SDS011;16028;42.642;23.310;2022-10-17T03:11:30;16.85;;;6.55;;
28910;SDS011;16028;42.642;23.310;2022-10-17T03:13:57;9.85;;;6.95;;
28910;SDS011;16028;42.642;23.310;2022-10-17T03:16:24;8.43;;;6.50;;
28910;SDS011;16028;42.642;23.310;2022-10-17T03:18:51;11.57;;;6.32;;
28910;SDS011;16028;42.642;23.310;2022-10-17T03:21:18;12.88;;;7.05;;
28910;SDS011;16028;42.642;23.310;2022-10-17T03:23:46;9.52;;;6.82;;
28910;SDS011;16028;42.642;23.310;2022-10-17T03:26:12;11.05;;;7.18;;
28910;SDS011;16028;42.642;23.310;2022-10-17T03:28:39;9.25;;;6.72;;
28910;SDS011;16028;42.642;23.310;2022-10-17T03:31:06;12.50;;;6.97;;
28910;SDS011;16028;42.642;23.310;2022-10-17T03:33:34;9.55;;;6.28;;
28910;SDS011;16028;42.642;23.310;2022-10-17T03:36:03;12.32;;;6.30;;
28910;SDS011;16028;42.642;23.310;2022-10-17T03:38:31;12.82;;;7.22;;
28910;SDS011;16028;42.642;23.310;2022-10-17T03:40:59;8.73;;;6.47;;
28910;SDS011;16028;42.642;23.310;2022-10-17T03:43:26;8.38;;;6.75;;
28910;SDS011;16028;42.642;23.310;2022-10-17T03:45:53;10.55;;;6.07;;
28910;SDS011;16028;42.642;23.310;2022-10-17T03:48:20;8.63;;;6.35;;
28910;SDS011;16028;42.642;23.310;2022-10-17T03:50:47;10.38;;;7.45;;
28910;SDS011;16028;42.642;23.310;2022-10-17T03:53:13;10.80;;;7.47;;
28910;SDS011;16028;42.642;23.310;2022-10-17T03:55:40;11.55;;;7.38;;
28910;SDS011;16028;42.642;23.310;2022-10-17T03:58:10;9.60;;;6.72;;
28910;SDS011;16028;42.642;23.310;2022-10-17T04:00:37;10.88;;;7.15;;
28910;SDS011;16028;42.642;23.310;2022-10-17T04:03:04;9.38;;;6.35;;
28910;SDS011;16028;42.642;23.310;2022-10-17T04:05:31;11.40;;;7.22;;
28910;SDS011;16028;42.642;23.310;2022-10-17T04:07:57;11.15;;;7.50;;
28910;SDS011;16028;42.642;23.310;2022-10-17T04:10:24;11.02;;;7.75;;
28910;SDS011;16028;42.642;23.310;2022-10-17T04:12:51;12.18;;;8.75;;
28910;SDS011;16028;42.642;23.310;2022-10-17T04:15:19;15.10;;;8.95;;
28910;SDS011;16028;42.642;23.310;2022-10-17T04:17:46;12.70;;;8.57;;
28910;SDS011;16028;42.642;23.310;2022-10-17T04:20:13;14.82;;;8.48;;
28910;SDS011;16028;42.642;23.310;2022-10-17T04:22:39;12.43;;;8.25;;
28910;SDS011;16028;42.642;23.310;2022-10-17T04:25:06;13.13;;;8.93;;
28910;SDS011;16028;42.642;23.310;2022-10-17T04:27:33;14.05;;;7.60;;
28910;SDS011;16028;42.642;23.310;2022-10-17T04:30:00;13.10;;;8.25;;
28910;SDS011;16028;42.642;23.310;2022-10-17T04:32:28;15.35;;;8.02;;
28910;SDS011;16028;42.642;23.310;2022-10-17T04:34:55;11.18;;;7.72;;
28910;SDS011;16028;42.642;23.310;2022-10-17T04:37:22;13.60;;;8.55;;
28910;SDS011;16028;42.642;23.310;2022-10-17T04:39:48;13.57;;;8.70;;
28910;SDS011;16028;42.642;23.310;2022-10-17T04:42:15;13.02;;;8.15;;
28910;SDS011;16028;42.642;23.310;2022-10-17T04:44:42;14.38;;;8.50;;
28910;SDS011;16028;42.642;23.310;2022-10-17T04:47:08;14.48;;;8.40;;
28910;SDS011;16028;42.642;23.310;2022-10-17T04:49:37;14.40;;;8.68;;
28910;SDS011;16028;42.642;23.310;2022-10-17T04:52:03;15.18;;;8.45;;
28910;SDS011;16028;42.642;23.310;2022-10-17T04:54:30;16.23;;;8.90;;
28910;SDS011;16028;42.642;23.310;2022-10-17T04:56:57;13.93;;;8.88;;
28910;SDS011;16028;42.642;23.310;2022-10-17T04:59:24;13.48;;;8.30;;
28910;SDS011;16028;42.642;23.310;2022-10-17T05:01:50;15.45;;;8.15;;
28910;SDS011;16028;42.642;23.310;2022-10-17T05:04:17;27.08;;;9.05;;
28910;SDS011;16028;42.642;23.310;2022-10-17T05:06:45;24.50;;;10.60;;
28910;SDS011;16028;42.642;23.310;2022-10-17T05:09:12;18.90;;;9.30;;
28910;SDS011;16028;42.642;23.310;2022-10-17T05:11:40;11.90;;;8.40;;
28910;SDS011;16028;42.642;23.310;2022-10-17T05:14:07;23.70;;;10.68;;
28910;SDS011;16028;42.642;23.310;2022-10-17T05:16:34;16.20;;;10.15;;
28910;SDS011;16028;42.642;23.310;2022-10-17T05:19:01;14.00;;;8.95;;
28910;SDS011;16028;42.642;23.310;2022-10-17T05:21:31;23.15;;;9.63;;
28910;SDS011;16028;42.642;23.310;2022-10-17T05:23:59;20.80;;;8.40;;
28910;SDS011;16028;42.642;23.310;2022-10-17T05:26:26;19.92;;;10.07;;
28910;SDS011;16028;42.642;23.310;2022-10-17T05:28:53;18.27;;;9.32;;
28910;SDS011;16028;42.642;23.310;2022-10-17T05:31:19;14.00;;;9.55;;
28910;SDS011;16028;42.642;23.310;2022-10-17T05:33:46;17.42;;;10.68;;
28910;SDS011;16028;42.642;23.310;2022-10-17T05:36:16;16.17;;;10.68;;
28910;SDS011;16028;42.642;23.310;2022-10-17T05:38:42;18.25;;;10.85;;
28910;SDS011;16028;42.642;23.310;2022-10-17T05:41:11;22.48;;;11.68;;
28910;SDS011;16028;42.642;23.310;2022-10-17T05:43:37;18.50;;;11.40;;
28910;SDS011;16028;42.642;23.310;2022-10-17T05:46:04;18.48;;;12.20;;
28910;SDS011;16028;42.642;23.310;2022-10-17T05:48:31;19.55;;;11.07;;
28910;SDS011;16028;42.642;23.310;2022-10-17T05:50:59;17.63;;;11.73;;
28910;SDS011;16028;42.642;23.310;2022-10-17T05:53:28;19.75;;;12.20;;
28910;SDS011;16028;42.642;23.310;2022-10-17T05:55:56;19.58;;;12.00;;
28910;SDS011;16028;42.642;23.310;2022-10-17T05:58:25;16.50;;;11.50;;
28910;SDS011;16028;42.642;23.310;2022-10-17T06:00:56;18.50;;;11.77;;
28910;SDS011;16028;42.642;23.310;2022-10-17T06:03:23;22.13;;;12.65;;
28910;SDS011;16028;42.642;23.310;2022-10-17T06:05:50;29.38;;;12.70;;
28910;SDS011;16028;42.642;23.310;2022-10-17T06:08:17;20.58;;;13.05;;
28910;SDS011;16028;42.642;23.310;2022-10-17T06:10:45;23.70;;;13.43;;
28910;SDS011;16028;42.642;23.310;2022-10-17T06:13:13;34.50;;;14.45;;
28910;SDS011;16028;42.642;23.310;2022-10-17T06:15:41;25.92;;;13.68;;
28910;SDS011;16028;42.642;23.310;2022-10-17T06:18:08;20.02;;;13.00;;
28910;SDS011;16028;42.642;23.310;2022-10-17T06:20:35;24.20;;;14.10;;
28910;SDS011;16028;42.642;23.310;2022-10-17T06:23:02;32.15;;;14.35;;
28910;SDS011;16028;42.642;23.310;2022-10-17T06:25:29;25.58;;;14.20;;
28910;SDS011;16028;42.642;23.310;2022-10-17T06:27:56;28.23;;;14.88;;
28910;SDS011;16028;42.642;23.310;2022-10-17T06:30:23;28.25;;;14.95;;
28910;SDS011;16028;42.642;23.310;2022-10-17T06:32:52;24.98;;;14.57;;
28910;SDS011;16028;42.642;23.310;2022-10-17T06:35:18;34.50;;;16.17;;
28910;SDS011;16028;42.642;23.310;2022-10-17T06:37:45;25.27;;;14.80;;
28910;SDS011;16028;42.642;23.310;2022-10-17T06:40:12;27.17;;;13.65;;
28910;SDS011;16028;42.642;23.310;2022-10-17T06:42:41;21.70;;;14.18;;
28910;SDS011;16028;42.642;23.310;2022-10-17T06:45:08;29.27;;;15.35;;
28910;SDS011;16028;42.642;23.310;2022-10-17T06:47:36;25.58;;;14.18;;
28910;SDS011;16028;42.642;23.310;2022-10-17T06:50:04;21.15;;;13.18;;
28910;SDS011;16028;42.642;23.310;2022-10-17T06:52:32;23.45;;;13.75;;
28910;SDS011;16028;42.642;23.310;2022-10-17T06:54:58;25.75;;;15.07;;
28910;SDS011;16028;42.642;23.310;2022-10-17T06:57:26;27.38;;;16.45;;
28910;SDS011;16028;42.642;23.310;2022-10-17T06:59:53;27.77;;;14.43;;
28910;SDS011;16028;42.642;23.310;2022-10-17T07:02:21;22.73;;;14.45;;
28910;SDS011;16028;42.642;23.310;2022-10-17T07:04:48;29.08;;;15.73;;
28910;SDS011;16028;42.642;23.310;2022-10-17T07:07:17;25.67;;;15.18;;
28910;SDS011;16028;42.642;23.310;2022-10-17T07:09:43;23.50;;;14.23;;
28910;SDS011;16028;42.642;23.310;2022-10-17T07:12:10;23.00;;;15.15;;
28910;SDS011;16028;42.642;23.310;2022-10-17T07:14:37;31.02;;;17.08;;
28910;SDS011;16028;42.642;23.310;2022-10-17T07:17:03;34.22;;;17.02;;
28910;SDS011;16028;42.642;23.310;2022-10-17T07:19:30;25.52;;;15.43;;
28910;SDS011;16028;42.642;23.310;2022-10-17T07:21:57;29.23;;;15.93;;
28910;SDS011;16028;42.642;23.310;2022-10-17T07:24:25;23.63;;;15.55;;
28910;SDS011;16028;42.642;23.310;2022-10-17T07:26:52;28.95;;;16.08;;
28910;SDS011;16028;42.642;23.310;2022-10-17T07:29:19;30.10;;;16.92;;
28910;SDS011;16028;42.642;23.310;2022-10-17T07:31:46;27.20;;;16.27;;
28910;SDS011;16028;42.642;23.310;2022-10-17T07:34:14;23.83;;;16.70;;
28910;SDS011;16028;42.642;23.310;2022-10-17T07:36:41;26.33;;;16.48;;
28910;SDS011;16028;42.642;23.310;2022-10-17T07:39:08;24.65;;;15.27;;
28910;SDS011;16028;42.642;23.310;2022-10-17T07:41:36;26.95;;;16.30;;
28910;SDS011;16028;42.642;23.310;2022-10-17T07:44:03;37.97;;;15.00;;
28910;SDS011;16028;42.642;23.310;2022-10-17T07:46:30;28.08;;;14.15;;
28910;SDS011;16028;42.642;23.310;2022-10-17T07:48:57;19.30;;;11.63;;
28910;SDS011;16028;42.642;23.310;2022-10-17T07:51:23;18.63;;;11.30;;
28910;SDS011;16028;42.642;23.310;2022-10-17T07:53:51;18.48;;;10.63;;
28910;SDS011;16028;42.642;23.310;2022-10-17T07:56:18;17.13;;;10.57;;
28910;SDS011;16028;42.642;23.310;2022-10-17T07:58:50;24.35;;;11.57;;
28910;SDS011;16028;42.642;23.310;2022-10-17T08:01:17;18.08;;;11.55;;
28910;SDS011;16028;42.642;23.310;2022-10-17T08:03:44;22.90;;;10.88;;
28910;SDS011;16028;42.642;23.310;2022-10-17T08:06:12;18.27;;;10.90;;
28910;SDS011;16028;42.642;23.310;2022-10-17T08:08:40;16.98;;;10.40;;
28910;SDS011;16028;42.642;23.310;2022-10-17T08:11:07;20.80;;;10.75;;
28910;SDS011;16028;42.642;23.310;2022-10-17T08:13:36;20.00;;;10.73;;
28910;SDS011;16028;42.642;23.310;2022-10-17T08:16:06;20.02;;;10.90;;
28910;SDS011;16028;42.642;23.310;2022-10-17T08:18:35;19.88;;;10.23;;
28910;SDS011;16028;42.642;23.310;2022-10-17T08:21:04;18.23;;;10.77;;
28910;SDS011;16028;42.642;23.310;2022-10-17T08:23:32;22.48;;;11.13;;
28910;SDS011;16028;42.642;23.310;2022-10-17T08:25:59;17.77;;;9.60;;
28910;SDS011;16028;42.642;23.310;2022-10-17T08:28:27;19.73;;;10.80;;
28910;SDS011;16028;42.642;23.310;2022-10-17T08:31:00;19.15;;;10.68;;
28910;SDS011;16028;42.642;23.310;2022-10-17T08:33:32;21.00;;;9.73;;
28910;SDS011;16028;42.642;23.310;2022-10-17T08:35:59;18.77;;;10.45;;
28910;SDS011;16028;42.642;23.310;2022-10-17T08:38:26;19.85;;;10.23;;
28910;SDS011;16028;42.642;23.310;2022-10-17T08:40:54;23.67;;;10.85;;
28910;SDS011;16028;42.642;23.310;2022-10-17T08:43:31;20.98;;;10.77;;
28910;SDS011;16028;42.642;23.310;2022-10-17T08:46:08;17.33;;;9.90;;
28910;SDS011;16028;42.642;23.310;2022-10-17T08:48:37;14.50;;;8.52;;
28910;SDS011;16028;42.642;23.310;2022-10-17T08:51:09;13.32;;;8.98;;
28910;SDS011;16028;42.642;23.310;2022-10-17T08:53:40;24.08;;;10.55;;
28910;SDS011;16028;42.642;23.310;2022-10-17T08:56:14;21.30;;;10.50;;
28910;SDS011;16028;42.642;23.310;2022-10-17T08:58:43;19.67;;;9.93;;
28910;SDS011;16028;42.642;23.310;2022-10-17T09:01:12;18.17;;;8.38;;
28910;SDS011;16028;42.642;23.310;2022-10-17T09:04:00;23.02;;;9.57;;
28910;SDS011;16028;42.642;23.310;2022-10-17T09:06:38;22.58;;;9.48;;
28910;SDS011;16028;42.642;23.310;2022-10-17T09:09:13;20.80;;;9.35;;
28910;SDS011;16028;42.642;23.310;2022-10-17T09:11:53;16.95;;;8.82;;
28910;SDS011;16028;42.642;23.310;2022-10-17T09:14:33;15.88;;;9.43;;
28910;SDS011;16028;42.642;23.310;2022-10-17T09:17:14;21.15;;;10.55;;
28910;SDS011;16028;42.642;23.310;2022-10-17T09:20:03;18.58;;;10.13;;
28910;SDS011;16028;42.642;23.310;2022-10-17T09:22:38;27.75;;;12.43;;
28910;SDS011;16028;42.642;23.310;2022-10-17T09:25:10;15.95;;;9.85;;
28910;SDS011;16028;42.642;23.310;2022-10-17T09:27:40;21.20;;;10.77;;
28910;SDS011;16028;42.642;23.310;2022-10-17T09:33:10;17.35;;;8.80;;
28910;SDS011;16028;42.642;23.310;2022-10-17T09:35:40;18.50;;;9.27;;
28910;SDS011;16028;42.642;23.310;2022-10-17T09:38:11;15.05;;;8.82;;
28910;SDS011;16028;42.642;23.310;2022-10-17T09:40:41;14.40;;;8.55;;
28910;SDS011;16028;42.642;23.310;2022-10-17T09:43:10;19.15;;;8.18;;
28910;SDS011;16028;42.642;23.310;2022-10-17T09:45:42;20.70;;;6.90;;
28910;SDS011;16028;42.642;23.310;2022-10-17T09:48:19;8.43;;;5.90;;
28910;SDS011;16028;42.642;23.310;2022-10-17T09:50:52;16.55;;;6.20;;
28910;SDS011;16028;42.642;23.310;2022-10-17T09:53:22;15.95;;;5.93;;
28910;SDS011;16028;42.642;23.310;2022-10-17T09:55:55;14.30;;;5.07;;
28910;SDS011;16028;42.642;23.310;2022-10-17T09:58:32;12.02;;;5.95;;
28910;SDS011;16028;42.642;23.310;2022-10-17T10:01:14;6.72;;;4.00;;
28910;SDS011;16028;42.642;23.310;2022-10-17T10:03:43;8.02;;;3.80;;
28910;SDS011;16028;42.642;23.310;2022-10-17T10:06:13;6.10;;;4.50;;
28910;SDS011;16028;42.642;23.310;2022-10-17T10:08:48;6.50;;;4.20;;
28910;SDS011;16028;42.642;23.310;2022-10-17T10:11:16;9.52;;;6.35;;
28910;SDS011;16028;42.642;23.310;2022-10-17T10:13:45;12.40;;;5.32;;
28910;SDS011;16028;42.642;23.310;2022-10-17T10:16:15;9.77;;;4.32;;
28910;SDS011;16028;42.642;23.310;2022-10-17T10:18:46;10.32;;;3.70;;
28910;SDS011;16028;42.642;23.310;2022-10-17T10:21:15;11.73;;;4.25;;
28910;SDS011;16028;42.642;23.310;2022-10-17T10:23:44;8.23;;;4.13;;
28910;SDS011;16028;42.642;23.310;2022-10-17T10:26:28;6.78;;;3.55;;
28910;SDS011;16028;42.642;23.310;2022-10-17T10:28:59;3.80;;;2.95;;
28910;SDS011;16028;42.642;23.310;2022-10-17T10:31:30;5.03;;;3.00;;
28910;SDS011;16028;42.642;23.310;2022-10-17T10:34:02;5.38;;;3.03;;
28910;SDS011;16028;42.642;23.310;2022-10-17T10:36:42;7.65;;;3.55;;
28910;SDS011;16028;42.642;23.310;2022-10-17T10:39:17;5.03;;;3.47;;
28910;SDS011;16028;42.642;23.310;2022-10-17T10:41:52;4.80;;;3.05;;
28910;SDS011;16028;42.642;23.310;2022-10-17T10:44:20;6.05;;;3.72;;
28910;SDS011;16028;42.642;23.310;2022-10-17T10:47:04;5.47;;;3.28;;
28910;SDS011;16028;42.642;23.310;2022-10-17T10:49:32;9.18;;;3.60;;
28910;SDS011;16028;42.642;23.310;2022-10-17T10:52:00;5.80;;;3.38;;
28910;SDS011;16028;42.642;23.310;2022-10-17T10:54:31;5.78;;;3.65;;
28910;SDS011;16028;42.642;23.310;2022-10-17T10:57:03;11.23;;;4.63;;
28910;SDS011;16028;42.642;23.310;2022-10-17T10:59:34;7.00;;;3.97;;
28910;SDS011;16028;42.642;23.310;2022-10-17T11:02:09;9.18;;;4.68;;
28910;SDS011;16028;42.642;23.310;2022-10-17T11:04:42;8.38;;;3.35;;
28910;SDS011;16028;42.642;23.310;2022-10-17T11:07:16;9.93;;;3.50;;
28910;SDS011;16028;42.642;23.310;2022-10-17T11:09:50;8.73;;;3.70;;
28910;SDS011;16028;42.642;23.310;2022-10-17T11:12:22;5.40;;;3.47;;
28910;SDS011;16028;42.642;23.310;2022-10-17T11:14:54;8.60;;;3.50;;
28910;SDS011;16028;42.642;23.310;2022-10-17T11:17:29;5.38;;;3.50;;
28910;SDS011;16028;42.642;23.310;2022-10-17T11:20:04;4.53;;;3.35;;
28910;SDS011;16028;42.642;23.310;2022-10-17T11:22:41;4.05;;;3.00;;
28910;SDS011;16028;42.642;23.310;2022-10-17T11:25:14;20.88;;;4.40;;
28910;SDS011;16028;42.642;23.310;2022-10-17T11:27:52;6.38;;;3.28;;
28910;SDS011;16028;42.642;23.310;2022-10-17T11:30:19;7.38;;;3.05;;
28910;SDS011;16028;42.642;23.310;2022-10-17T11:32:49;6.65;;;2.95;;
28910;SDS011;16028;42.642;23.310;2022-10-17T11:35:20;6.43;;;3.33;;
28910;SDS011;16028;42.642;23.310;2022-10-17T11:37:54;8.60;;;5.47;;
28910;SDS011;16028;42.642;23.310;2022-10-17T11:40:28;5.93;;;3.08;;
28910;SDS011;16028;42.642;23.310;2022-10-17T11:42:58;6.10;;;2.90;;
28910;SDS011;16028;42.642;23.310;2022-10-17T11:45:28;7.10;;;2.83;;
28910;SDS011;16028;42.642;23.310;2022-10-17T11:48:00;10.27;;;3.88;;
28910;SDS011;16028;42.642;23.310;2022-10-17T11:50:32;5.35;;;3.25;;
28910;SDS011;16028;42.642;23.310;2022-10-17T11:53:05;4.82;;;2.80;;
28910;SDS011;16028;42.642;23.310;2022-10-17T11:55:37;5.70;;;3.05;;
28910;SDS011;16028;42.642;23.310;2022-10-17T11:58:13;12.27;;;3.72;;
28910;SDS011;16028;42.642;23.310;2022-10-17T12:00:51;7.88;;;3.08;;
28910;SDS011;16028;42.642;23.310;2022-10-17T12:03:38;6.40;;;3.45;;
28910;SDS011;16028;42.642;23.310;2022-10-17T12:06:33;5.47;;;3.13;;
28910;SDS011;16028;42.642;23.310;2022-10-17T12:09:10;5.95;;;3.60;;
28910;SDS011;16028;42.642;23.310;2022-10-17T12:11:47;6.20;;;3.58;;
28910;SDS011;16028;42.642;23.310;2022-10-17T12:14:34;5.82;;;3.58;;
28910;SDS011;16028;42.642;23.310;2022-10-17T12:17:03;7.28;;;3.50;;
28910;SDS011;16028;42.642;23.310;2022-10-17T12:19:32;10.52;;;3.67;;
28910;SDS011;16028;42.642;23.310;2022-10-17T12:24:54;6.10;;;3.85;;
28910;SDS011;16028;42.642;23.310;2022-10-17T12:30:16;5.68;;;3.47;;
28910;SDS011;16028;42.642;23.310;2022-10-17T12:32:58;8.50;;;3.17;;
28910;SDS011;16028;42.642;23.310;2022-10-17T12:35:28;7.47;;;3.53;;
28910;SDS011;16028;42.642;23.310;2022-10-17T12:38:18;4.63;;;3.50;;
28910;SDS011;16028;42.642;23.310;2022-10-17T12:40:50;8.57;;;3.33;;
28910;SDS011;16028;42.642;23.310;2022-10-17T12:49:36;8.73;;;3.60;;
28910;SDS011;16028;42.642;23.310;2022-10-17T12:55:00;6.10;;;3.40;;
28910;SDS011;16028;42.642;23.310;2022-10-17T12:57:39;5.32;;;3.30;;
28910;SDS011;16028;42.642;23.310;2022-10-17T13:00:17;7.68;;;3.45;;
28910;SDS011;16028;42.642;23.310;2022-10-17T13:02:47;7.50;;;3.70;;
28910;SDS011;16028;42.642;23.310;2022-10-17T13:05:20;11.57;;;3.50;;
28910;SDS011;16028;42.642;23.310;2022-10-17T13:07:52;7.13;;;3.63;;
28910;SDS011;16028;42.642;23.310;2022-10-17T13:10:21;19.30;;;9.77;;
28910;SDS011;16028;42.642;23.310;2022-10-17T13:12:53;11.43;;;6.18;;
28910;SDS011;16028;42.642;23.310;2022-10-17T13:15:28;7.55;;;4.18;;
28910;SDS011;16028;42.642;23.310;2022-10-17T13:17:56;7.72;;;3.78;;
28910;SDS011;16028;42.642;23.310;2022-10-17T13:20:24;5.80;;;3.70;;
28910;SDS011;16028;42.642;23.310;2022-10-17T13:22:53;6.25;;;3.65;;
28910;SDS011;16028;42.642;23.310;2022-10-17T13:25:21;6.72;;;3.70;;
28910;SDS011;16028;42.642;23.310;2022-10-17T13:27:49;8.50;;;3.63;;
28910;SDS011;16028;42.642;23.310;2022-10-17T13:30:36;7.28;;;3.10;;
28910;SDS011;16028;42.642;23.310;2022-10-17T13:33:03;6.40;;;3.10;;
28910;SDS011;16028;42.642;23.310;2022-10-17T13:35:43;4.63;;;3.53;;
28910;SDS011;16028;42.642;23.310;2022-10-17T13:38:13;7.70;;;3.67;;
28910;SDS011;16028;42.642;23.310;2022-10-17T13:40:41;6.20;;;3.78;;
28910;SDS011;16028;42.642;23.310;2022-10-17T13:43:15;6.70;;;3.60;;
28910;SDS011;16028;42.642;23.310;2022-10-17T13:45:45;3.90;;;3.10;;
28910;SDS011;16028;42.642;23.310;2022-10-17T13:48:17;11.07;;;3.33;;
28910;SDS011;16028;42.642;23.310;2022-10-17T13:50:46;4.68;;;3.50;;
28910;SDS011;16028;42.642;23.310;2022-10-17T13:53:18;5.32;;;3.10;;
28910;SDS011;16028;42.642;23.310;2022-10-17T13:55:53;7.22;;;3.15;;
28910;SDS011;16028;42.642;23.310;2022-10-17T13:58:28;5.07;;;3.55;;
28910;SDS011;16028;42.642;23.310;2022-10-17T14:00:59;6.23;;;3.23;;
28910;SDS011;16028;42.642;23.310;2022-10-17T14:03:26;5.43;;;3.15;;
28910;SDS011;16028;42.642;23.310;2022-10-17T14:06:06;5.70;;;3.25;;
28910;SDS011;16028;42.642;23.310;2022-10-17T14:08:45;7.40;;;3.10;;
28910;SDS011;16028;42.642;23.310;2022-10-17T14:11:26;8.85;;;3.08;;
28910;SDS011;16028;42.642;23.310;2022-10-17T14:13:59;5.03;;;3.42;;
28910;SDS011;16028;42.642;23.310;2022-10-17T14:16:32;4.03;;;3.20;;
28910;SDS011;16028;42.642;23.310;2022-10-17T14:19:01;9.32;;;5.22;;
28910;SDS011;16028;42.642;23.310;2022-10-17T14:21:29;10.55;;;6.68;;
28910;SDS011;16028;42.642;23.310;2022-10-17T14:24:12;21.80;;;12.52;;
28910;SDS011;16028;42.642;23.310;2022-10-17T14:29:19;40.53;;;22.00;;
28910;SDS011;16028;42.642;23.310;2022-10-17T14:31:47;42.45;;;22.27;;
28910;SDS011;16028;42.642;23.310;2022-10-17T14:34:19;41.17;;;22.02;;
28910;SDS011;16028;42.642;23.310;2022-10-17T14:36:50;28.65;;;16.10;;
28910;SDS011;16028;42.642;23.310;2022-10-17T14:39:18;23.90;;;13.20;;
28910;SDS011;16028;42.642;23.310;2022-10-17T14:41:47;26.48;;;13.80;;
28910;SDS011;16028;42.642;23.310;2022-10-17T14:44:17;17.25;;;8.80;;
28910;SDS011;16028;42.642;23.310;2022-10-17T14:46:48;17.88;;;8.70;;
28910;SDS011;16028;42.642;23.310;2022-10-17T14:49:20;13.68;;;7.18;;
28910;SDS011;16028;42.642;23.310;2022-10-17T14:52:11;21.58;;;7.05;;
28910;SDS011;16028;42.642;23.310;2022-10-17T14:54:50;12.98;;;6.55;;
28910;SDS011;16028;42.642;23.310;2022-10-17T14:57:18;13.48;;;7.45;;
28910;SDS011;16028;42.642;23.310;2022-10-17T14:59:51;10.98;;;7.22;;
28910;SDS011;16028;42.642;23.310;2022-10-17T15:02:17;17.17;;;7.40;;
28910;SDS011;16028;42.642;23.310;2022-10-17T15:04:45;15.07;;;8.18;;